Time;durP1;ratioP1;P1;durP2;ratioP2;P2;SDS_P1;SDS_P2;PMS_P1;PMS_P2;Temp;Humidity;BMP_temperature;BMP_pressure;BME280_temperature;BME280_humidity;BME280_pressure;Samples;Min_cycle;Max_cycle;Signal;HPM_P1;HPM_P2
2024/02/01 00:00:37;;;;;;;0.10;0.10;;;;;;;10.99;76.13;102505.66;5056115;28;20115;-78
2024/02/01 00:03:03;;;;;;;0.20;0.20;;;;;;;11.07;75.68;102496.84;5053251;28;20040;-77
2024/02/01 00:05:29;;;;;;;0.15;0.15;;;;;;;11.09;76.25;102493.31;5058955;28;20033;-78
2024/02/01 00:07:56;;;;;;;2.15;2.05;;;;;;;11.14;76.45;102498.63;5057671;28;20084;-79
2024/02/01 00:10:22;;;;;;;4.95;0.73;;;;;;;11.13;76.67;102496.88;5055553;28;20111;-78
2024/02/01 00:12:49;;;;;;;0.10;0.10;;;;;;;11.16;76.97;102496.88;5055024;28;20048;-78
2024/02/01 00:15:15;;;;;;;0.28;0.28;;;;;;;11.13;77.04;102495.09;5055362;28;20516;-78
2024/02/01 00:17:41;;;;;;;0.10;0.10;;;;;;;11.15;77.59;102484.47;5058905;28;20032;-78
2024/02/01 00:20:08;;;;;;;0.40;0.40;;;;;;;11.17;77.33;102502.19;5072448;28;20028;-77
2024/02/01 00:22:34;;;;;;;0.10;0.10;;;;;;;11.28;76.92;102486.31;5075200;28;20024;-77
2024/02/01 00:25:00;;;;;;;0.10;0.10;;;;;;;11.14;77.61;102498.63;5069020;28;20032;-78
2024/02/01 00:27:27;;;;;;;0.68;0.68;;;;;;;11.27;77.38;102495.16;5064975;28;20040;-77
2024/02/01 00:29:53;;;;;;;29.13;1.38;;;;;;;11.36;77.34;102488.97;5076707;28;20028;-81
2024/02/01 00:32:19;;;;;;;0.10;0.10;;;;;;;11.30;77.49;102492.53;5073608;28;20514;-82
2024/02/01 00:34:46;;;;;;;0.40;0.40;;;;;;;11.31;77.12;102481.03;5057985;28;20021;-81
2024/02/01 00:37:12;;;;;;;0.20;0.20;;;;;;;11.33;77.75;102492.50;5068181;28;20048;-81
2024/02/01 00:39:38;;;;;;;0.47;0.45;;;;;;;11.23;78.56;102501.34;5066343;28;20040;-80
2024/02/01 00:42:04;;;;;;;0.20;0.20;;;;;;;11.22;78.44;102501.34;5069687;28;20399;-81
2024/02/01 00:44:31;;;;;;;0.20;0.20;;;;;;;11.26;79.09;102490.72;5068383;28;20496;-82
2024/02/01 00:46:57;;;;;;;0.10;0.10;;;;;;;11.37;77.78;102497.84;5060524;28;20040;-80
2024/02/01 00:49:23;;;;;;;0.75;0.75;;;;;;;11.33;78.88;102500.47;5066504;28;20029;-81
2024/02/01 00:51:49;;;;;;;0.35;0.35;;;;;;;11.31;78.27;102496.94;5063305;28;20032;-80
2024/02/01 00:54:15;;;;;;;0.20;0.20;;;;;;;11.32;77.99;102508.44;5076227;28;20032;-81
2024/02/01 00:56:42;;;;;;;0.63;0.63;;;;;;;11.36;78.22;102488.09;5069522;28;20064;-82
2024/02/01 00:59:08;;;;;;;1.33;1.25;;;;;;;11.38;77.89;102481.06;5062991;28;20032;-81
2024/02/01 01:01:34;;;;;;;0.10;0.10;;;;;;;11.16;79.18;102491.56;5065330;28;20025;-81
2024/02/01 01:04:00;;;;;;;0.10;0.10;;;;;;;11.29;78.63;102490.75;5057696;28;20032;-81
2024/02/01 01:06:27;;;;;;;2.47;2.28;;;;;;;11.43;78.67;102495.22;5070956;28;20048;-80
2024/02/01 01:08:54;;;;;;;0.70;0.70;;;;;;;11.38;78.10;102502.28;5073199;28;20024;-80
2024/02/01 01:11:20;;;;;;;0.10;0.10;;;;;;;11.44;78.24;102496.97;5065741;28;20029;-79
2024/02/01 01:13:46;;;;;;;0.17;0.17;;;;;;;11.38;78.25;102502.28;5065477;28;20082;-80
2024/02/01 01:16:12;;;;;;;0.95;0.38;;;;;;;11.46;78.07;102490.81;5075699;28;20067;-81
2024/02/01 01:18:38;;;;;;;1.35;1.35;;;;;;;11.49;78.57;102500.53;5075542;28;20083;-81
2024/02/01 01:21:05;;;;;;;0.10;0.10;;;;;;;11.47;78.30;102496.97;5065764;28;20025;-81
2024/02/01 01:23:31;;;;;;;0.95;0.95;;;;;;;11.51;77.81;102522.66;5077549;28;20049;-81
2024/02/01 01:25:57;;;;;;;0.43;0.43;;;;;;;11.49;78.64;102508.50;5059144;28;20025;-81
2024/02/01 01:28:23;;;;;;;0.10;0.10;;;;;;;11.52;78.65;102520.91;5076416;28;20029;-80
2024/02/01 01:30:50;;;;;;;0.50;0.50;;;;;;;11.45;78.92;102530.59;5066372;28;20039;-81
2024/02/01 01:33:16;;;;;;;0.45;0.45;;;;;;;11.47;78.64;102531.50;5076996;28;20025;-80
2024/02/01 01:35:42;;;;;;;1.00;1.00;;;;;;;11.49;78.85;102532.41;5079244;28;20035;-80
2024/02/01 01:38:08;;;;;;;0.10;0.10;;;;;;;11.57;78.40;102535.06;5057919;28;20040;-81
2024/02/01 01:40:34;;;;;;;0.20;0.20;;;;;;;11.67;78.30;102530.66;5069458;28;20074;-81
2024/02/01 01:43:00;;;;;;;0.10;0.10;;;;;;;11.64;78.32;102526.25;5068942;28;20024;-81
2024/02/01 01:45:27;;;;;;;0.30;0.30;;;;;;;11.63;78.26;102541.25;5077374;28;20115;-81
2024/02/01 01:47:53;;;;;;;0.40;0.40;;;;;;;11.57;78.45;102543.91;5078933;28;20060;-79
2024/02/01 01:50:20;;;;;;;0.10;0.10;;;;;;;11.56;77.98;102542.13;5064184;28;20029;-81
2024/02/01 01:52:48;;;;;;;0.30;0.30;;;;;;;11.59;77.88;102544.81;5073623;28;20028;-80
2024/02/01 01:55:15;;;;;;;0.10;0.10;;;;;;;11.55;77.64;102542.13;5070555;28;20035;-81
2024/02/01 01:57:43;;;;;;;0.10;0.10;;;;;;;11.54;78.04;102550.97;5061529;28;20392;-80
2024/02/01 02:00:12;;;;;;;0.25;0.25;;;;;;;11.51;77.40;102551.84;5069314;28;20056;-81
2024/02/01 02:02:39;;;;;;;0.35;0.35;;;;;;;11.64;76.86;102556.31;5071877;28;20216;-81
2024/02/01 02:05:06;;;;;;;0.10;0.10;;;;;;;11.51;77.41;102564.25;5079935;28;20029;-81
2024/02/01 02:07:32;;;;;;;0.10;0.10;;;;;;;11.53;77.79;102568.69;5065584;28;20027;-82
2024/02/01 02:10:00;;;;;;;0.63;0.63;;;;;;;11.60;77.10;102545.69;5064585;28;20021;-82
2024/02/01 02:12:28;;;;;;;0.10;0.10;;;;;;;11.56;77.18;102560.72;5060260;28;20029;-82
2024/02/01 02:14:58;;;;;;;0.10;0.10;;;;;;;11.54;77.46;102566.91;5061572;28;20488;-81
2024/02/01 02:17:25;;;;;;;0.52;0.52;;;;;;;11.43;76.90;102570.41;5068995;28;20033;-82
2024/02/01 02:19:52;;;;;;;0.10;0.10;;;;;;;11.46;77.04;102564.22;5065697;28;20116;-81
2024/02/01 02:22:21;;;;;;;0.10;0.10;;;;;;;11.48;76.58;102576.63;5063251;28;20037;-80
2024/02/01 02:24:47;;;;;;;0.30;0.30;;;;;;;11.43;76.90;102573.06;5069585;28;20033;-80
2024/02/01 02:27:16;;;;;;;0.20;0.20;;;;;;;11.45;76.42;102592.53;5059886;28;20024;-81
2024/02/01 02:29:43;;;;;;;0.10;0.10;;;;;;;11.50;76.39;102589.88;5065932;28;20077;-81
2024/02/01 02:32:09;;;;;;;0.10;0.10;;;;;;;11.45;76.24;102583.66;5057094;28;20029;-81
2024/02/01 02:34:35;;;;;;;0.30;0.30;;;;;;;11.44;75.96;102580.16;5057241;28;20079;-81
2024/02/01 02:37:01;;;;;;;2.05;0.68;;;;;;;11.48;75.62;102581.06;5069151;28;20043;-81
2024/02/01 02:39:27;;;;;;;0.38;0.38;;;;;;;11.39;75.62;102592.50;5069311;28;20044;-81
2024/02/01 02:41:53;;;;;;;0.10;0.10;;;;;;;11.35;75.95;102584.53;5063296;28;20042;-81
2024/02/01 02:44:20;;;;;;;0.10;0.10;;;;;;;11.36;76.00;102594.25;5064218;28;20086;-82
2024/02/01 02:46:46;;;;;;;0.10;0.10;;;;;;;11.27;75.51;102611.91;5075884;28;20092;-81
2024/02/01 02:49:13;;;;;;;0.10;0.10;;;;;;;11.28;74.91;102621.63;5067147;28;20036;-81
2024/02/01 02:51:39;;;;;;;0.10;0.10;;;;;;;11.14;74.36;102632.19;5077539;28;20032;-81
2024/02/01 02:54:06;;;;;;;0.57;0.57;;;;;;;11.06;74.56;102630.34;5083733;28;20033;-82
2024/02/01 02:56:32;;;;;;;0.10;0.10;;;;;;;10.88;73.51;102631.09;5074455;28;20029;-82
2024/02/01 02:58:58;;;;;;;0.10;0.10;;;;;;;10.65;72.68;102643.31;5070211;28;20036;-81
2024/02/01 03:01:25;;;;;;;0.65;0.65;;;;;;;10.48;71.99;102655.50;5066852;28;20040;-81
2024/02/01 03:03:51;;;;;;;0.10;0.10;;;;;;;10.33;71.55;102667.72;5062461;28;20166;-81
2024/02/01 03:06:18;;;;;;;0.20;0.20;;;;;;;10.26;71.70;102655.25;5067232;28;20040;-82
2024/02/01 03:08:44;;;;;;;0.10;0.10;;;;;;;10.22;71.17;102660.50;5058736;28;20041;-81
2024/02/01 03:11:11;;;;;;;0.10;0.10;;;;;;;10.18;71.89;102656.94;5060118;28;20035;-81
2024/02/01 03:13:41;;;;;;;6.40;1.10;;;;;;;10.11;71.61;102668.34;5081537;28;20033;-81
2024/02/01 03:16:23;;;;;;;0.10;0.10;;;;;;;9.95;71.24;102673.44;5075832;28;20495;-82
2024/02/01 03:18:50;;;;;;;0.10;0.10;;;;;;;9.84;71.97;102680.38;5079500;28;20036;-81
2024/02/01 03:21:18;;;;;;;0.20;0.20;;;;;;;9.75;71.84;102677.63;5071644;28;20040;-81
2024/02/01 03:23:46;;;;;;;0.43;0.40;;;;;;;9.58;72.01;102678.28;5062812;28;20029;-80
2024/02/01 03:26:13;;;;;;;0.10;0.10;;;;;;;9.52;71.25;102680.81;5070516;28;20044;-80
2024/02/01 03:28:44;;;;;;;0.10;0.10;;;;;;;9.43;70.38;102683.34;5068457;28;20446;-79
2024/02/01 03:31:12;;;;;;;0.10;0.10;;;;;;;9.33;69.66;102688.53;5069649;28;20028;-80
2024/02/01 03:33:40;;;;;;;0.20;0.20;;;;;;;9.27;69.53;102696.38;5074430;28;20032;-79
2024/02/01 03:36:14;;;;;;;0.10;0.10;;;;;;;9.12;68.24;102706.69;5079783;28;20040;-80
2024/02/01 03:38:42;;;;;;;0.10;0.10;;;;;;;9.04;68.99;102701.28;5078514;28;20054;-79
2024/02/01 03:41:08;;;;;;;0.10;0.10;;;;;;;8.88;67.76;102710.72;5054453;28;20033;-79
2024/02/01 03:43:34;;;;;;;0.20;0.20;;;;;;;8.69;67.34;102707.75;5060348;28;20506;-80
2024/02/01 03:46:01;;;;;;;0.20;0.20;;;;;;;8.70;67.03;102719.22;5077190;28;20031;-80
2024/02/01 03:48:27;;;;;;;0.20;0.20;;;;;;;8.58;66.71;102738.38;5077096;28;20024;-79
2024/02/01 03:50:53;;;;;;;0.20;0.20;;;;;;;8.51;66.44;102733.81;5071613;28;20033;-80
2024/02/01 03:53:19;;;;;;;0.10;0.10;;;;;;;8.50;67.42;102745.25;5066835;28;20040;-79
2024/02/01 03:55:48;;;;;;;0.10;0.10;;;;;;;8.34;66.19;102744.94;5076629;28;20052;-79
2024/02/01 03:58:17;;;;;;;0.10;0.10;;;;;;;8.35;66.26;102752.00;5062655;28;20040;-80
2024/02/01 04:00:44;;;;;;;0.10;0.10;;;;;;;8.28;66.81;102747.44;5068716;28;20041;-81
2024/02/01 04:03:14;;;;;;;0.20;0.20;;;;;;;8.17;67.07;102764.81;5068573;28;20507;-81
2024/02/01 04:05:42;;;;;;;0.10;0.10;;;;;;;8.08;66.35;102761.13;5061614;28;20027;-81
2024/02/01 04:08:08;;;;;;;0.10;0.10;;;;;;;8.00;65.88;102767.09;5065437;28;20029;-80
2024/02/01 04:10:36;;;;;;;0.10;0.10;;;;;;;8.03;67.23;102778.63;5077822;28;20462;-80
2024/02/01 04:13:07;;;;;;;0.17;0.17;;;;;;;7.97;66.79;102781.13;5068714;28;20029;-80
2024/02/01 04:15:34;;;;;;;0.20;0.20;;;;;;;7.94;67.34;102784.59;5071863;28;20451;-80
2024/02/01 04:18:02;;;;;;;0.20;0.20;;;;;;;7.88;67.76;102786.22;5080156;28;20024;-80
2024/02/01 04:20:29;;;;;;;0.20;0.20;;;;;;;7.87;67.86;102789.69;5078924;28;20030;-80
2024/02/01 04:22:55;;;;;;;0.13;0.13;;;;;;;7.82;67.69;102794.00;5059897;28;20021;-80
2024/02/01 04:25:23;;;;;;;0.20;0.20;;;;;;;7.75;66.98;102792.94;5061754;28;20404;-80
2024/02/01 04:27:50;;;;;;;0.20;0.20;;;;;;;7.75;67.31;102808.75;5063103;28;20029;-80
2024/02/01 04:30:18;;;;;;;0.10;0.10;;;;;;;7.71;67.08;102807.84;5077692;28;20040;-80
2024/02/01 04:32:45;;;;;;;0.20;0.20;;;;;;;7.65;67.46;102825.25;5070165;28;20103;-80
2024/02/01 04:35:12;;;;;;;0.20;0.20;;;;;;;7.62;66.92;102815.50;5066249;28;20032;-80
2024/02/01 04:37:39;;;;;;;0.20;0.20;;;;;;;7.61;67.29;102825.19;5076770;28;20025;-80
2024/02/01 04:40:07;;;;;;;0.15;0.15;;;;;;;7.62;67.58;102833.97;5066258;28;20487;-79
2024/02/01 04:42:35;;;;;;;0.13;0.13;;;;;;;7.53;67.43;102846.97;5059857;28;20040;-79
2024/02/01 04:45:04;;;;;;;0.13;0.13;;;;;;;7.51;67.08;102846.91;5059512;28;20408;-80
2024/02/01 04:47:33;;;;;;;0.20;0.20;;;;;;;7.49;67.20;102847.72;5059295;28;20025;-80
2024/02/01 04:49:59;;;;;;;0.10;0.10;;;;;;;7.43;67.94;102844.06;5065251;28;20413;-80
2024/02/01 04:52:26;;;;;;;0.20;0.20;;;;;;;7.41;67.68;102837.88;5073182;28;20060;-80
2024/02/01 04:54:53;;;;;;;0.10;0.10;;;;;;;7.43;67.74;102844.06;5076595;28;20040;-81
2024/02/01 04:57:20;;;;;;;0.10;0.10;;;;;;;7.42;68.34;102836.13;5063877;28;20021;-80
2024/02/01 04:59:47;;;;;;;0.20;0.20;;;;;;;7.42;68.40;102850.19;5063129;28;20043;-80
2024/02/01 05:02:15;;;;;;;0.15;0.15;;;;;;;7.40;68.19;102854.56;5074805;28;20033;-80
2024/02/01 05:04:42;;;;;;;0.10;0.10;;;;;;;7.43;68.19;102846.72;5057768;28;20024;-79
2024/02/01 05:07:08;;;;;;;0.10;0.10;;;;;;;7.45;68.14;102855.56;5065853;28;20028;-79
2024/02/01 05:09:36;;;;;;;0.20;0.20;;;;;;;7.47;67.52;102849.44;5065577;28;20029;-80
2024/02/01 05:12:02;;;;;;;0.20;0.20;;;;;;;7.44;67.36;102845.88;5067212;28;20550;-79
2024/02/01 05:14:29;;;;;;;0.20;0.20;;;;;;;7.42;67.87;102862.50;5068470;28;20043;-79
2024/02/01 05:16:55;;;;;;;0.20;0.20;;;;;;;7.37;67.70;102858.88;5063273;28;20028;-77
2024/02/01 05:19:21;;;;;;;0.20;0.20;;;;;;;7.33;67.41;102859.63;5060032;28;20493;-78
2024/02/01 05:21:48;;;;;;;0.20;0.20;;;;;;;7.30;67.31;102868.34;5068802;28;20029;-78
2024/02/01 05:24:14;;;;;;;0.35;0.35;;;;;;;7.24;67.89;102871.72;5067342;28;20063;-79
2024/02/01 05:26:46;;;;;;;0.17;0.17;;;;;;;7.24;67.93;102876.09;5073065;28;20082;-80
2024/02/01 05:29:12;;;;;;;0.30;0.30;;;;;;;7.18;67.41;102881.19;5062702;28;20534;-80
2024/02/01 05:31:39;;;;;;;0.10;0.10;;;;;;;7.15;68.39;102884.63;5059372;28;20025;-79
2024/02/01 05:34:05;;;;;;;0.10;0.10;;;;;;;7.09;68.03;102895.94;5059196;28;20534;-79
2024/02/01 05:36:32;;;;;;;0.15;0.15;;;;;;;7.10;68.02;102897.72;5071009;28;20033;-79
2024/02/01 05:38:59;;;;;;;0.10;0.10;;;;;;;7.09;68.02;102895.00;5070548;28;20024;-79
2024/02/01 05:41:25;;;;;;;0.20;0.20;;;;;;;7.07;68.72;102891.47;5067208;28;20066;-80
2024/02/01 05:43:51;;;;;;;0.20;0.20;;;;;;;7.05;68.66;102894.06;5073640;28;20025;-80
2024/02/01 05:46:17;;;;;;;0.20;0.20;;;;;;;7.03;68.43;102906.31;5058837;28;20083;-79
2024/02/01 05:48:44;;;;;;;0.20;0.20;;;;;;;7.02;68.35;102911.53;5058541;28;20037;-79
2024/02/01 05:51:10;;;;;;;0.20;0.20;;;;;;;6.98;68.95;102910.56;5064251;28;20078;-79
2024/02/01 05:53:38;;;;;;;0.20;0.20;;;;;;;7.00;68.61;102910.59;5062281;28;20067;-78
2024/02/01 05:56:04;;;;;;;0.20;0.20;;;;;;;6.96;68.79;102921.03;5063234;28;20123;-79
2024/02/01 05:58:31;;;;;;;0.20;0.20;;;;;;;6.88;68.89;102929.56;5060160;28;20029;-80
2024/02/01 06:00:57;;;;;;;0.20;0.20;;;;;;;6.90;69.38;102930.50;5061596;28;20028;-79
2024/02/01 06:03:25;;;;;;;0.10;0.10;;;;;;;6.89;69.02;102939.25;5071644;28;20025;-79
2024/02/01 06:05:51;;;;;;;0.20;0.20;;;;;;;6.87;69.10;102936.59;5065913;28;20036;-80
2024/02/01 06:08:18;;;;;;;0.10;0.10;;;;;;;6.90;68.97;102943.69;5062225;28;20029;-80
2024/02/01 06:10:45;;;;;;;0.10;0.10;;;;;;;6.86;69.51;102944.47;5064647;28;20038;-80
2024/02/01 06:13:11;;;;;;;0.10;0.10;;;;;;;6.85;69.73;102948.81;5068425;28;20033;-80
2024/02/01 06:15:37;;;;;;;0.10;0.10;;;;;;;6.85;69.42;102953.22;5067949;28;20037;-80
2024/02/01 06:18:04;;;;;;;0.10;0.10;;;;;;;6.84;69.78;102948.78;5062674;28;20037;-80
2024/02/01 06:20:30;;;;;;;1.08;1.08;;;;;;;6.86;69.94;102955.00;5064068;28;20028;-80
2024/02/01 06:22:57;;;;;;;0.20;0.20;;;;;;;6.83;69.96;102954.91;5066726;28;20058;-79
2024/02/01 06:25:24;;;;;;;0.20;0.20;;;;;;;6.83;69.82;102945.28;5070580;28;20044;-80
2024/02/01 06:27:50;;;;;;;0.20;0.20;;;;;;;6.83;70.07;102960.16;5074565;28;20043;-80
2024/02/01 06:30:16;;;;;;;0.85;0.85;;;;;;;6.79;69.83;102961.81;5072578;28;20443;-81
2024/02/01 06:32:42;;;;;;;0.25;0.25;;;;;;;6.77;69.52;102967.03;5061090;28;20120;-81
2024/02/01 06:35:16;;;;;;;0.20;0.20;;;;;;;6.74;69.80;102969.59;5077537;28;20029;-80
2024/02/01 06:37:51;;;;;;;0.20;0.20;;;;;;;6.73;70.03;102972.16;5065603;28;20036;-80
2024/02/01 06:41:06;;;;;;;0.20;0.20;;;;;;;6.72;69.43;102978.31;5065267;28;20029;-80
2024/02/01 06:46:01;;;;;;;0.10;0.10;;;;;;;6.66;69.91;102989.53;5059645;28;20048;-80
2024/02/01 06:48:40;;;;;;;0.20;0.20;;;;;;;6.62;69.87;102987.66;5056205;28;20025;-80
2024/02/01 06:51:21;;;;;;;0.20;0.20;;;;;;;6.63;70.16;102994.72;5064736;28;20426;-80
2024/02/01 06:53:56;;;;;;;0.20;0.20;;;;;;;6.61;70.01;103009.56;5051168;28;20032;-80
2024/02/01 06:56:48;;;;;;;0.20;0.20;;;;;;;6.58;69.78;103014.72;5054784;28;20028;-80
2024/02/01 06:59:30;;;;;;;0.20;0.20;;;;;;;6.54;69.76;103016.41;5078372;28;20143;-80
2024/02/01 07:02:11;;;;;;;0.20;0.20;;;;;;;6.47;69.76;103022.31;5070796;28;20033;-80
2024/02/01 07:04:53;;;;;;;0.17;0.17;;;;;;;6.42;69.72;103016.88;5057517;28;20024;-80
2024/02/01 07:07:29;;;;;;;0.20;0.20;;;;;;;6.41;70.10;103019.47;5056936;28;20108;-80
2024/02/01 07:10:08;;;;;;;0.13;0.13;;;;;;;6.39;70.17;103034.31;5069148;28;20055;-81
2024/02/01 07:18:06;;;;;;;0.20;0.20;;;;;;;6.34;70.06;103036.81;5073348;28;20383;-80
2024/02/01 07:20:35;;;;;;;0.10;0.10;;;;;;;6.30;70.11;103037.56;5072907;28;20036;-81
2024/02/01 07:23:33;;;;;;;0.20;0.20;;;;;;;6.33;70.24;103048.19;5072027;28;20039;-81
2024/02/01 07:26:00;;;;;;;0.50;0.50;;;;;;;6.36;70.23;103056.19;5045588;28;20037;-80
2024/02/01 07:59:07;;;;;;;0.17;0.17;;;;;;;6.35;70.05;103107.06;5048495;28;20128;-81
2024/02/01 08:02:01;;;;;;;0.20;0.20;;;;;;;6.34;70.48;103110.53;5053392;28;20048;-80
2024/02/01 08:07:43;;;;;;;0.13;0.13;;;;;;;6.37;70.32;103102.75;5052014;28;20041;-81
2024/02/01 08:09:53;;;;;;;0.22;0.22;;;;;;;6.40;70.72;103125.66;5043003;28;20041;-82
2024/02/01 08:12:20;;;;;;;0.10;0.10;;;;;;;6.45;70.66;103127.56;5050858;28;20143;-81
2024/02/01 08:14:46;;;;;;;0.63;0.63;;;;;;;6.45;70.73;103126.69;5052026;28;20036;-80
2024/02/01 08:17:13;;;;;;;0.10;0.10;;;;;;;6.49;71.18;103123.31;5049445;28;20079;-81
2024/02/01 08:19:39;;;;;;;0.10;0.10;;;;;;;6.50;71.14;103129.50;5051608;28;20041;-81
2024/02/01 08:22:05;;;;;;;0.13;0.13;;;;;;;6.62;70.99;103129.91;5051384;28;20021;-81
2024/02/01 08:24:31;;;;;;;0.10;0.10;;;;;;;6.74;70.84;103125.03;5049591;28;20025;-81
2024/02/01 08:26:57;;;;;;;0.10;0.10;;;;;;;6.79;70.91;103133.06;5051473;28;20108;-81
2024/02/01 08:29:35;;;;;;;1.80;1.75;;;;;;;6.88;71.49;103140.38;5039449;28;20081;-81
2024/02/01 08:32:03;;;;;;;0.10;0.10;;;;;;;6.99;71.12;103136.38;5038898;28;20044;-80
2024/02/01 08:34:29;;;;;;;0.10;0.10;;;;;;;7.10;71.02;103140.25;5037566;28;20027;-80
2024/02/01 08:36:55;;;;;;;0.20;0.20;;;;;;;7.19;70.97;103159.81;5038210;28;20036;-81
2024/02/01 08:39:21;;;;;;;0.10;0.10;;;;;;;7.25;70.99;103144.19;5037928;28;20448;-81
2024/02/01 08:41:47;;;;;;;0.20;0.20;;;;;;;7.29;70.54;103164.56;5038346;28;20460;-81
2024/02/01 08:44:13;;;;;;;0.20;0.20;;;;;;;7.29;70.53;103175.09;5038228;28;20030;-81
2024/02/01 08:46:40;;;;;;;0.10;0.10;;;;;;;7.37;70.55;103184.13;5039142;28;20480;-81
2024/02/01 08:49:06;;;;;;;0.10;0.10;;;;;;;7.43;70.78;103181.69;5038591;28;20037;-81
2024/02/01 08:51:33;;;;;;;0.10;0.10;;;;;;;7.52;70.85;103177.53;5037311;28;20025;-81
2024/02/01 08:53:59;;;;;;;0.10;0.10;;;;;;;7.54;70.40;103186.38;5040319;28;20396;-80
2024/02/01 08:56:36;;;;;;;0.10;0.10;;;;;;;7.57;70.48;103179.47;5034292;28;20033;-80
2024/02/01 08:59:03;;;;;;;0.20;0.20;;;;;;;7.63;70.94;103181.41;5029741;28;20128;-82
2024/02/01 09:01:30;;;;;;;0.10;0.10;;;;;;;7.68;71.11;103187.69;5048933;28;20116;-81
2024/02/01 09:03:57;;;;;;;0.10;0.10;;;;;;;7.77;71.20;103187.06;5040710;28;20122;-79
2024/02/01 09:06:23;;;;;;;0.85;0.85;;;;;;;7.84;71.31;103190.78;5047795;28;20031;-79
2024/02/01 09:08:50;;;;;;;0.20;0.20;;;;;;;7.97;70.86;103177.09;5037897;28;20112;-79
2024/02/01 09:11:17;;;;;;;0.32;0.32;;;;;;;8.03;70.71;103185.19;5041734;28;20026;-80
2024/02/01 09:13:46;;;;;;;0.10;0.10;;;;;;;8.22;70.41;103186.63;5043018;28;20029;-79
2024/02/01 09:16:18;;;;;;;0.15;0.15;;;;;;;8.31;70.16;103185.97;5043468;28;20036;-79
2024/02/01 09:18:44;;;;;;;0.20;0.20;;;;;;;8.34;69.45;103180.75;5046648;28;20040;-78
2024/02/01 09:21:12;;;;;;;0.95;0.95;;;;;;;8.44;69.81;103192.47;5046420;28;20077;-79
2024/02/01 09:23:38;;;;;;;1.50;1.48;;;;;;;8.54;69.95;103205.09;5042496;28;20026;-79
2024/02/01 09:26:04;;;;;;;7.78;4.13;;;;;;;8.51;69.27;103217.31;5043072;28;20021;-80
2024/02/01 09:28:30;;;;;;;0.20;0.20;;;;;;;8.72;68.79;103217.91;5041860;28;20064;-80
2024/02/01 09:30:57;;;;;;;1.45;1.35;;;;;;;8.78;68.94;103225.09;5040830;28;20072;-80
2024/02/01 09:33:27;;;;;;;0.20;0.20;;;;;;;8.88;68.78;103226.22;5039800;28;20654;-80
2024/02/01 09:35:56;;;;;;;0.20;0.20;;;;;;;8.88;69.15;103234.16;5042977;28;20034;-80
2024/02/01 09:38:23;;;;;;;0.10;0.10;;;;;;;8.93;67.92;103229.88;5041708;28;20045;-80
2024/02/01 09:40:49;;;;;;;0.10;0.10;;;;;;;9.11;68.40;103224.16;5041360;28;20076;-79
2024/02/01 09:43:17;;;;;;;0.10;0.10;;;;;;;9.19;67.78;103237.56;5041667;28;20128;-80
2024/02/01 09:45:44;;;;;;;0.10;0.10;;;;;;;9.29;68.03;103236.91;5042565;28;20576;-78
2024/02/01 09:48:16;;;;;;;0.10;0.10;;;;;;;9.32;67.92;103244.03;5041528;28;20036;-78
2024/02/01 09:50:58;;;;;;;0.10;0.10;;;;;;;9.31;67.04;103248.44;5037691;28;20026;-79
2024/02/01 09:53:26;;;;;;;0.20;0.20;;;;;;;9.29;67.21;103251.91;5038252;28;20021;-79
2024/02/01 09:55:54;;;;;;;0.20;0.20;;;;;;;9.32;66.93;103254.63;5038508;28;20025;-79
2024/02/01 09:58:21;;;;;;;0.10;0.10;;;;;;;9.29;66.00;103262.50;5038865;28;20053;-80
2024/02/01 10:00:48;;;;;;;0.20;0.20;;;;;;;9.44;66.74;103259.31;5040292;28;20048;-80
2024/02/01 10:03:15;;;;;;;0.10;0.10;;;;;;;9.47;66.42;103259.38;5039793;28;20033;-80
2024/02/01 10:05:43;;;;;;;0.10;0.10;;;;;;;9.54;66.36;103256.03;5040597;28;20029;-84
2024/02/01 10:10:48;;;;;;;0.20;0.20;;;;;;;9.68;65.66;103262.53;5118533;27;20347;-81
2024/02/01 10:13:18;;;;;;;0.30;0.30;;;;;;;9.75;65.13;103276.81;5109233;28;20135;-83
2024/02/01 10:18:21;;;;;;;0.20;0.20;;;;;;;9.69;65.02;103271.38;5117830;27;20091;-81
2024/02/01 10:20:50;;;;;;;0.20;0.20;;;;;;;9.83;64.42;103255.78;5118267;28;20045;-81
2024/02/01 10:23:17;;;;;;;0.10;0.10;;;;;;;9.85;64.02;103264.66;5117602;28;20032;-80
2024/02/01 10:25:48;;;;;;;0.20;0.20;;;;;;;9.97;64.07;103261.38;5092756;28;20042;-82
2024/02/01 10:28:17;;;;;;;0.10;0.10;;;;;;;10.05;64.40;103275.69;5111808;28;20024;-82
2024/02/01 10:30:45;;;;;;;0.20;0.20;;;;;;;9.90;63.43;103278.00;5119386;28;20039;-81
2024/02/01 10:33:13;;;;;;;0.10;0.10;;;;;;;10.03;63.91;103267.72;5113815;28;20032;-82
2024/02/01 10:35:42;;;;;;;0.10;0.10;;;;;;;10.15;64.09;103260.88;5113351;28;20107;-81
2024/02/01 10:38:11;;;;;;;0.10;0.10;;;;;;;10.23;63.44;103272.53;5117389;28;20028;-81
2024/02/01 10:40:44;;;;;;;0.20;0.20;;;;;;;10.27;62.35;103265.50;5112885;28;20032;-82
2024/02/01 10:43:13;;;;;;;;;;;;;;;10.47;62.81;103258.03;5092855;28;20068;-81
2024/02/01 10:45:42;;;;;;;2.55;1.95;;;;;;;10.35;62.95;103270.13;5108723;28;19951;-81
2024/02/01 10:48:13;;;;;;;0.10;0.10;;;;;;;10.27;60.83;103271.72;5111292;28;20020;-81
2024/02/01 10:50:40;;;;;;;0.10;0.10;;;;;;;10.24;61.11;103271.66;5112684;28;20482;-81
2024/02/01 10:53:08;;;;;;;0.20;0.20;;;;;;;10.30;61.24;103269.13;5101212;28;20056;-81
2024/02/01 10:55:39;;;;;;;0.17;0.17;;;;;;;10.23;61.08;103276.94;5101949;28;20039;-82
2024/02/01 10:58:12;;;;;;;0.10;0.10;;;;;;;10.39;60.81;103273.75;5101366;28;20028;-80
2024/02/01 11:00:41;;;;;;;0.20;0.20;;;;;;;10.42;60.75;103276.47;5107305;28;20398;-82
2024/02/01 11:03:09;;;;;;;0.10;0.10;;;;;;;10.50;60.52;103273.97;5106481;28;20486;-80
2024/02/01 11:05:37;;;;;;;0.20;0.20;;;;;;;10.59;60.61;103267.94;5094318;28;20083;-82
2024/02/01 11:08:04;;;;;;;0.10;0.10;;;;;;;10.55;60.80;103280.25;5102838;28;20031;-81
2024/02/01 11:10:30;;;;;;;0.20;0.20;;;;;;;10.55;60.70;103274.94;5106082;28;20035;-81
2024/02/01 11:12:56;;;;;;;0.10;0.10;;;;;;;10.57;59.83;103277.66;5113762;28;20038;-82
2024/02/01 11:15:24;;;;;;;0.75;0.52;;;;;;;10.66;60.92;103286.66;5105879;28;20036;-82
2024/02/01 11:17:51;;;;;;;0.68;0.68;;;;;;;10.68;60.35;103270.78;5099208;28;20028;-82
2024/02/01 11:20:25;;;;;;;0.20;0.20;;;;;;;10.79;60.60;103268.31;5093018;28;20384;-81
2024/02/01 11:23:03;;;;;;;0.30;0.30;;;;;;;10.80;59.90;103273.66;5088549;28;20028;-82
2024/02/01 11:25:32;;;;;;;0.10;0.10;;;;;;;10.73;58.64;103269.13;5090257;28;20028;-82
2024/02/01 11:27:59;;;;;;;0.30;0.30;;;;;;;10.81;59.18;103280.72;5089568;28;20162;-82
2024/02/01 11:30:31;;;;;;;0.20;0.20;;;;;;;10.86;58.78;103275.53;5077938;28;21346;-82
2024/02/01 11:32:58;;;;;;;0.20;0.20;;;;;;;10.83;58.74;103281.66;5078127;28;20739;-81
2024/02/01 11:35:27;;;;;;;0.10;0.10;;;;;;;10.73;58.36;103282.38;5078941;28;20621;-80
2024/02/01 11:38:01;;;;;;;0.10;0.10;;;;;;;10.88;58.43;103283.50;5079165;28;20523;-79
2024/02/01 11:40:27;;;;;;;0.10;0.10;;;;;;;10.89;58.77;103278.25;5072902;28;20028;-82
2024/02/01 11:42:58;;;;;;;0.10;0.10;;;;;;;11.02;57.79;103289.94;5074711;28;20057;-77
2024/02/01 11:45:25;;;;;;;2.10;1.27;;;;;;;11.08;58.49;103283.84;5083520;28;20116;-79
2024/02/01 11:47:53;;;;;;;0.10;0.10;;;;;;;11.12;57.65;103278.63;5094594;28;20096;-80
2024/02/01 11:50:23;;;;;;;0.85;0.85;;;;;;;11.20;58.12;103285.81;5086580;28;20029;-79
2024/02/01 11:53:00;;;;;;;0.10;0.10;;;;;;;11.18;56.71;103285.81;5087266;28;20035;-77
2024/02/01 11:55:29;;;;;;;0.50;0.50;;;;;;;11.13;57.73;103276.88;5071172;28;20031;-77
2024/02/01 11:57:57;;;;;;;0.20;0.20;;;;;;;11.22;56.77;103284.09;5076890;28;20025;-78
2024/02/01 12:00:24;;;;;;;0.20;0.20;;;;;;;11.28;57.41;103287.75;5067738;28;20040;-78
2024/02/01 12:02:51;;;;;;;0.10;0.10;;;;;;;11.37;57.31;103276.38;5065676;28;20044;-78
2024/02/01 12:05:19;;;;;;;0.10;0.10;;;;;;;11.37;56.62;103286.13;5071882;28;20028;-77
2024/02/01 12:07:47;;;;;;;0.10;0.10;;;;;;;11.35;56.91;103296.69;5080378;28;20028;-78
2024/02/01 12:10:16;;;;;;;0.10;0.10;;;;;;;11.47;56.57;103290.69;5096942;28;20038;-78
2024/02/01 12:12:45;;;;;;;0.10;0.10;;;;;;;11.48;56.43;103296.00;5090750;28;20034;-78
2024/02/01 12:15:13;;;;;;;0.10;0.10;;;;;;;11.51;56.83;103304.91;5090521;28;20084;-78
2024/02/01 12:17:50;;;;;;;2.05;1.95;;;;;;;11.55;56.27;103302.34;5094789;28;20024;-78
2024/02/01 12:20:18;;;;;;;0.20;0.20;;;;;;;11.68;56.69;103306.06;5093893;28;20087;-79